Flight Track Log - Related Links

Times and Time Zones

All times are in EDT time to prevent confusion due to time zone crossing. See the UAL4788 flight status page for this flight to view local times or setup timezone preferences in your user account.

Time Position Orientation Groundspeed Altitude Reporting Facility
EDT Latitude Longitude Course Direction KTS MPH feet Rate Location/Type
Mon 06:00:50 AM 42.9303 -83.7425 100° East 116 133 2,700  Level FAA TRACON SMA TRACON (SMA)
Mon 06:01:09 AM 42.9236 -83.7278 122° Southeast 149 171 3,000 1,231 Climbing FAA TRACON SMA TRACON (SMA)
Mon 06:01:29 AM 42.9208 -83.7042 99° East 162 186 3,500 1,650 Climbing FAA TRACON SMA TRACON (SMA)
Mon 06:01:49 AM 42.9122 -83.6889 128° Southeast 157 181 4,100 1,500 Climbing FAA TRACON SMA TRACON (SMA)
Mon 06:02:09 AM 42.9031 -83.6742 130° Southeast 165 190 4,500 1,200 Climbing FAA TRACON SMA TRACON (SMA)
Mon 06:02:29 AM 42.8900 -83.6561 135° Southeast 175 201 4,900 1,200 Climbing FAA TRACON SMA TRACON (SMA)
Mon 06:02:49 AM 42.8789 -83.6406 134° Southeast 185 213 5,300 1,463 Climbing FAA TRACON SMA TRACON (SMA)
Mon 06:03:10 AM 42.8647 -83.6203 134° Southeast 188 216 5,900 1,500 Climbing FAA TRACON SMA TRACON (SMA)
Mon 06:03:29 AM 42.8533 -83.6042 134° Southeast 190 219 6,300 1,231 Climbing FAA TRACON SMA TRACON (SMA)
Mon 06:03:49 AM 42.8422 -83.5872 132° Southeast 193 222 6,700 878 Climbing FAA TRACON SMA TRACON (SMA)
Mon 06:04:10 AM 42.8306 -83.5708 134° Southeast 195 224 6,900 450 Climbing FAA TRACON SMA TRACON (SMA)
Mon 06:04:29 AM 42.8144 -83.5475 133° Southeast 221 254 7,000 154 Climbing FAA TRACON SMA TRACON (SMA)
Mon 06:04:49 AM 42.8008 -83.5278 133° Southeast 237 273 7,000  Level FAA TRACON SMA TRACON (SMA)
Mon 06:05:09 AM 42.7867 -83.5075 134° Southeast 242 278 7,000  Level FAA TRACON SMA TRACON (SMA)
Mon 06:05:29 AM 42.7681 -83.4817 134° Southeast 246 283 7,000  Level FAA TRACON SMA TRACON (SMA)
Mon 06:05:50 AM 42.7533 -83.4608 134° Southeast 246 283 7,000  Level FAA TRACON SMA TRACON (SMA)
Mon 06:06:00 AM 42.7096 -83.4240 100° East  Level Estimated
Mon 06:06:09 AM 42.7389 -83.4400 133° Southeast 246 283 7,000  Level FAA TRACON SMA TRACON (SMA)
Mon 06:06:30 AM 42.7206 -83.4139 134° Southeast 247 284 7,000  Level FAA TRACON SMA TRACON (SMA)
Mon 06:06:49 AM 42.7061 -83.3931 133° Southeast 246 283 7,000  Level FAA TRACON SMA TRACON (SMA)
Mon 06:07:09 AM 42.6914 -83.3722 134° Southeast 246 283 7,000  Level FAA TRACON SMA TRACON (SMA)
Mon 06:07:29 AM 42.6733 -83.3467 134° Southeast 245 282 7,000  Level FAA TRACON SMA TRACON (SMA)
Mon 06:07:49 AM 42.6586 -83.3261 134° Southeast 247 284 7,000  Level FAA TRACON SMA TRACON (SMA)
Mon 06:08:10 AM 42.6442 -83.3056 134° Southeast 243 280 7,000  Level FAA TRACON SMA TRACON (SMA)
Mon 06:08:29 AM 42.6258 -83.2803 135° Southeast 244 281 7,000  Level FAA TRACON SMA TRACON (SMA)
Mon 06:08:49 AM 42.6114 -83.2594 133° Southeast 243 280 7,000  Level FAA TRACON SMA TRACON (SMA)
Mon 06:09:09 AM 42.5969 -83.2389 134° Southeast 243 280 7,000  Level FAA TRACON SMA TRACON (SMA)
Mon 06:09:29 AM 42.5825 -83.2183 134° Southeast 245 282 7,000  Level FAA TRACON SMA TRACON (SMA)
Mon 06:09:50 AM 42.5642 -83.1919 133° Southeast 246 283 7,000  Level FAA TRACON SMA TRACON (SMA)
Mon 06:10:09 AM 42.5500 -83.1719 134° Southeast 246 283 7,000  Level FAA TRACON SMA TRACON (SMA)
Mon 06:10:29 AM 42.5325 -83.1475 134° Southeast 246 283 7,000  Level FAA TRACON SMA TRACON (SMA)
Mon 06:10:49 AM 42.5153 -83.1231 134° Southeast 246 283 7,000  Level FAA TRACON SMA TRACON (SMA)
Mon 06:11:09 AM 42.5017 -83.1039 134° Southeast 246 283 7,000  Level FAA TRACON SMA TRACON (SMA)
Mon 06:11:30 AM 42.4842 -83.0794 134° Southeast 246 283 7,000  Level FAA TRACON SMA TRACON (SMA)
Mon 06:11:49 AM 42.4733 -83.0575 124° Southeast 243 280 7,000  Level FAA TRACON SMA TRACON (SMA)
Mon 06:12:09 AM 42.4628 -83.0303 118° Southeast 260 299 7,000  Level FAA TRACON SMA TRACON (SMA)
Mon 06:12:30 AM 42.4511 -82.9989 117° Southeast 243 280 7,000  Level FAA TRACON SMA TRACON (SMA)
Mon 06:12:49 AM 42.4417 -82.9736 117° Southeast 243 280 7,000  Level FAA TRACON SMA TRACON (SMA)
Mon 06:13:10 AM 42.4322 -82.9486 117° Southeast 243 280 7,000  Level FAA TRACON SMA TRACON (SMA)
Mon 06:13:29 AM 42.4228 -82.9236 117° Southeast 243 280 7,000  Level FAA TRACON SMA TRACON (SMA)
Mon 06:13:49 AM 42.4111 -82.8922 117° Southeast 242 278 7,000  Level FAA TRACON SMA TRACON (SMA)
Mon 06:14:09 AM 42.4019 -82.8672 116° Southeast 243 280 7,000  Level FAA TRACON SMA TRACON (SMA)
Mon 06:14:29 AM 42.3925 -82.8419 117° Southeast 242 278 7,000  Level FAA TRACON SMA TRACON (SMA)
Mon 06:14:50 AM 42.3808 -82.8106 117° Southeast 242 278 7,000  Level FAA TRACON SMA TRACON (SMA)
Mon 06:15:09 AM 42.3717 -82.7858 117° Southeast 242 278 7,000  Level FAA TRACON SMA TRACON (SMA)
Mon 06:15:29 AM 42.3594 -82.7631 126° Southeast 256 295 7,000  Level FAA TRACON SMA TRACON (SMA)
Mon 06:15:50 AM 42.3394 -82.7400 140° Southeast 241 277 7,000  Level FAA TRACON SMA TRACON (SMA)
Mon 06:16:09 AM 42.3219 -82.7231 144° Southeast 252 290 7,000  Level FAA TRACON SMA TRACON (SMA)
Mon 06:16:30 AM 42.3058 -82.7056 141° Southeast 245 282 7,000  Level FAA TRACON SMA TRACON (SMA)
Mon 06:16:49 AM 42.2858 -82.6828 140° Southeast 244 281 7,000  Level FAA TRACON SMA TRACON (SMA)
Mon 06:17:09 AM 42.2697 -82.6647 140° Southeast 244 281 7,000  Level FAA TRACON SMA TRACON (SMA)
Mon 06:17:30 AM 42.2536 -82.6467 140° Southeast 244 281 7,000  Level FAA TRACON SMA TRACON (SMA)
Mon 06:17:49 AM 42.2331 -82.6239 141° Southeast 246 283 7,000  Level FAA TRACON SMA TRACON (SMA)
Mon 06:18:10 AM 42.2169 -82.6056 140° Southeast 247 284 7,000  Level FAA TRACON SMA TRACON (SMA)
Mon 06:18:29 AM 42.2006 -82.5875 141° Southeast 247 284 7,000  Level FAA TRACON SMA TRACON (SMA)
Mon 06:18:49 AM 42.1800 -82.5647 141° Southeast 247 284 7,000  Level FAA TRACON SMA TRACON (SMA)
Mon 06:19:10 AM 42.1642 -82.5467 140° Southeast 245 282 7,000  Level FAA TRACON SMA TRACON (SMA)
Mon 06:19:29 AM 42.1478 -82.5286 141° Southeast 246 283 7,000  Level FAA TRACON SMA TRACON (SMA)
Mon 06:19:50 AM 42.1269 -82.5061 141° Southeast 247 284 7,000  Level FAA TRACON SMA TRACON (SMA)
Mon 06:20:09 AM 42.1111 -82.4881 140° Southeast 247 284 7,000  Level FAA TRACON SMA TRACON (SMA)
Mon 06:20:29 AM 42.0944 -82.4703 142° Southeast 248 285 7,000  Level FAA TRACON SMA TRACON (SMA)
Mon 06:20:49 AM 42.0742 -82.4478 141° Southeast 247 284 7,000  Level FAA TRACON SMA TRACON (SMA)
Mon 06:21:09 AM 42.0575 -82.4297 141° Southeast 248 285 7,000  Level FAA TRACON SMA TRACON (SMA)
Mon 06:21:30 AM 42.0414 -82.4117 140° Southeast 247 284 7,000  Level FAA TRACON SMA TRACON (SMA)
Mon 06:21:49 AM 42.0211 -82.3889 140° Southeast 247 284 7,000  Level FAA TRACON SMA TRACON (SMA)
Mon 06:22:09 AM 42.0047 -82.3706 140° Southeast 247 284 7,000  Level FAA TRACON SMA TRACON (SMA)
Mon 06:22:30 AM 41.9881 -82.3522 141° Southeast 247 284 7,000  Level FAA TRACON SMA TRACON (SMA)
Mon 06:22:49 AM 41.9683 -82.3294 139° Southeast 245 282 7,000  Level FAA TRACON SMA TRACON (SMA)
Mon 06:23:10 AM 41.9519 -82.3114 141° Southeast 246 283 7,000  Level FAA TRACON SMA TRACON (SMA)
Mon 06:23:29 AM 41.9356 -82.2931 140° Southeast 246 283 7,000  Level FAA TRACON SMA TRACON (SMA)
Mon 06:23:44 AM 41.9181 -82.2825 156° South 249 287 7,000  Level Cleveland Center
Mon 06:24:00 AM 41.9017 -82.2653 142° Southeast 251 289 7,000  Level Cleveland Center
Mon 06:24:44 AM 41.8628 -82.2197 139° Southeast 249 287 7,000  Level Cleveland Center
Mon 06:25:00 AM 41.8506 -82.2056 139° Southeast 251 289 7,000 -98 Level Cleveland Center
Mon 06:25:45 AM 41.8050 -82.1736 152° Southeast 248 285 6,900 -100 Descending Cleveland Center
Mon 06:26:00 AM 41.7906 -82.1594 144° Southeast 251 289 6,900 -393 Level Cleveland Center
Mon 06:26:46 AM 41.7408 -82.1528 174° South 253 291 6,500 -906 Descending Cleveland Center
Mon 06:27:46 AM 41.6719 -82.1622 186° South 252 290 5,300 -793 Descending Cleveland Center
Mon 06:28:47 AM 41.6031 -82.1686 184° South 240 276 4,900 -472 Descending Cleveland Center
Mon 06:29:53 AM 41.5278 -82.1697 181° South 243 280 4,300 -722 Descending Cleveland Center
Mon 06:31:00 AM 41.4744 -82.1072 139° Southeast 231 266 3,300 -656 Descending Cleveland Center
Mon 06:32:01 AM 41.4231 -82.0592 145° Southeast 221 254 2,900 -220 Descending Cleveland Center
Mon 06:32:49 AM 41.3881 -82.0167 138° Southeast 199 229 2,900 -417 Level Cleveland Center
Mon 06:33:56 AM 41.3700 -81.9556 111° Southeast 150 173 2,100 -709 Descending Cleveland Center
Mon 06:34:56 AM 41.3811 -81.9031 74° East 122 140 1,400 -700 Descending Cleveland Center
Mon 06:36:00 AM 41.4000 -81.8500 143° Southeast  Level FlightAware Approximate
Mon 06:43:00 AM 41.4094 -81.8547 143° Southeast  Level Estimated
Mon 06:44:00 AM 41.4094 -81.8547 143° Southeast  Level Estimated

Login

Don't have an account? Register now (free) for customized features, flight alerts, and more!